Flight Track Log - Related Links

Times and Time Zones

All times are in EDT time to prevent confusion due to time zone crossing. See the 9V-SKA flight status page for this flight to view local times or setup timezone preferences in your user account.

Time Position Orientation Groundspeed Altitude Reporting Facility
EDT Latitude Longitude Course Direction KTS MPH feet Rate Location/Type
Wed 08:11:34 PM 40.6440 -73.7780 33° Northeast  Level FlightAware ADS-B
Wed 08:12:02 PM 40.6430 -73.7780 180° South Level FlightAware ADS-B
Wed 08:14:00 PM 40.8465 -73.5869 37° Northeast  Level FlightAware Approximate
Wed 08:15:00 PM 40.9571 -73.4763 37° Northeast  Level FlightAware Approximate
Wed 08:16:00 PM 41.0831 -73.3762 30° Northeast  Level FlightAware Approximate
Wed 08:17:00 PM 41.2054 -73.2686 27° Northeast  Level FlightAware Approximate
Wed 08:18:00 PM 41.3314 -73.1683 32° Northeast  Level FlightAware Approximate
Wed 08:19:00 PM 41.4249 -73.0211 62° Northeast  Level FlightAware Approximate
Wed 08:20:00 PM 41.4941 -72.8481 62° Northeast  Level FlightAware Approximate
Wed 08:21:00 PM 41.5676 -72.6814 56° Northeast  Level FlightAware Approximate
Wed 08:22:00 PM 41.6352 -72.5125 58° Northeast  Level FlightAware Approximate
Wed 08:23:00 PM 41.7123 -72.3450 58° Northeast  Level FlightAware Approximate
Wed 08:24:02 PM 40.6430 -73.7780 180° South  Level FlightAware ADS-B
Wed 08:26:00 PM 40.8687 -73.5646 37° Northeast  Level FlightAware Approximate
Wed 08:27:00 PM 40.9876 -73.4504 30° Northeast  Level FlightAware Approximate
Wed 08:28:00 PM 41.1144 -73.3518 30° Northeast  Level FlightAware Approximate
Wed 08:29:00 PM 41.2375 -73.2465 32° Northeast  Level FlightAware Approximate
Wed 08:30:00 PM 41.3605 -73.1395 37° Northeast  Level FlightAware Approximate
Wed 08:31:00 PM 41.4420 -72.9785 62° Northeast  Level FlightAware Approximate
Wed 08:32:00 PM 41.5179 -72.8131 66° East  Level FlightAware Approximate
Wed 08:33:00 PM 41.5897 -72.6436 37° Northeast  Level FlightAware Approximate
Wed 08:34:00 PM 41.6543 -72.4713 58° Northeast  Level FlightAware Approximate
Wed 08:35:00 PM 41.7313 -72.3036 58° Northeast  Level FlightAware Approximate
Wed 08:36:00 PM 41.8081 -72.1355 58° Northeast  Level FlightAware Approximate
Wed 08:37:00 PM 41.8895 -71.9711 56° Northeast  Level FlightAware Approximate
Wed 08:38:00 PM 41.9607 -71.7987 67° East  Level FlightAware Approximate
Wed 08:39:00 PM 42.0170 -71.6160 61° Northeast  Level FlightAware Approximate
Wed 08:40:00 PM 42.0889 -71.4433 61° Northeast  Level FlightAware Approximate
Wed 08:41:00 PM 42.1545 -71.2660 64° Northeast  Level FlightAware Approximate
Wed 08:42:00 PM 42.2187 -71.0875 64° Northeast  Level FlightAware Approximate
Wed 08:43:00 PM 42.2796 -70.9068 67° East  Level FlightAware Approximate
Wed 08:44:00 PM 42.3372 -70.7239 67° East  Level FlightAware Approximate
Wed 08:44:54 PM 40.6430 -73.7780 90° East  Level FlightAware ADS-B
Wed 08:47:00 PM 40.8843 -73.5490 37° Northeast  Level FlightAware Approximate
Wed 08:48:00 PM 41.0045 -73.4373 30° Northeast  Level FlightAware Approximate
Wed 08:49:00 PM 41.1302 -73.3365 37° Northeast  Level FlightAware Approximate
Wed 08:50:00 PM 41.2542 -73.2327 32° Northeast  Level FlightAware Approximate
Wed 08:51:00 PM 41.3746 -73.1215 48° Northeast  Level FlightAware Approximate
Wed 08:52:00 PM 41.4512 -72.9554 62° Northeast  Level FlightAware Approximate
Wed 08:53:00 PM 41.5258 -72.7892 66° East  Level FlightAware Approximate
Wed 08:54:00 PM 41.6028 -72.6251 66° East  Level FlightAware Approximate
Wed 08:55:15 PM 40.6440 -73.7770 90° East 11 13  Level FlightAware ADS-B
Wed 08:55:56 PM 40.6430 -73.7770 180° South 12 14 Level FlightAware ADS-B
Wed 08:56:37 PM 40.6430 -73.7760 90° East 13 15 Level FlightAware ADS-B
Wed 08:57:19 PM 40.6420 -73.7760 180° South 11 13 10 Level FlightAware ADS-B
Wed 08:59:00 PM 40.8098 -73.6118 21° North  Level FlightAware Approximate
Wed 09:00:00 PM 40.9239 -73.5095 37° Northeast  Level FlightAware Approximate
Wed 09:01:00 PM 41.0472 -73.4041 30° Northeast  Level FlightAware Approximate
Wed 09:02:00 PM 41.1698 -73.2969 37° Northeast  Level FlightAware Approximate
Wed 09:02:30 PM 40.6410 -73.7750 37° Northeast 14 16  Level FlightAware ADS-B
Wed 09:03:11 PM 40.6410 -73.7740 90° East 20 23 14 Level FlightAware ADS-B
Wed 09:03:38 PM 40.6410 -73.7730 90° East 17 20 14 Level FlightAware ADS-B
Wed 09:04:20 PM 40.6430 -73.7720 21° North 25 29 15 Level FlightAware ADS-B
Wed 09:04:46 PM 40.6440 -73.7710 37° Northeast 29 33 16 Level FlightAware ADS-B
Wed 09:05:04 PM 40.6450 -73.7710 360° North 26 30 16 Level FlightAware ADS-B
Wed 09:05:47 PM 40.6470 -73.7710 360° North 19 22 17 Level FlightAware ADS-B
Wed 09:08:00 PM 40.9028 -73.5305 37° Northeast  Level FlightAware Approximate
Wed 09:08:05 PM 40.6470 -73.7720 37° Northeast 14 16  Level FlightAware ADS-B
Wed 09:08:48 PM 40.6480 -73.7710 37° Northeast 18 21 22 Level FlightAware ADS-B
Wed 09:09:14 PM 40.6490 -73.7700 37° Northeast 26 30 24 Level FlightAware ADS-B
Wed 09:09:43 PM 40.6490 -73.7690 90° East 21 24 25 Level FlightAware ADS-B
Wed 09:10:38 PM 40.6500 -73.7670 57° Northeast 27 Level FlightAware ADS-B
Wed 09:13:00 PM 40.9237 -73.5097 37° Northeast  Level FlightAware Approximate
Wed 09:14:00 PM 41.0470 -73.4042 30° Northeast  Level FlightAware Approximate
Wed 09:14:52 PM 40.6490 -73.7660 30° Northeast 13 15  Level FlightAware ADS-B
Wed 09:15:32 PM 40.6490 -73.7650 90° East 14 16 87 Level FlightAware ADS-B
Wed 09:16:03 PM 40.6480 -73.7650 180° South 17 20 122 Level FlightAware ADS-B
Wed 09:16:14 PM 40.6480 -73.7660 270° West 24 28 179 Level FlightAware ADS-B
Wed 09:16:42 PM 40.6390 -73.7720 207° Southwest 116 133 214 Level FlightAware ADS-B
Wed 09:17:10 PM 40.6230 -73.7850 212° Southwest 148 170 200 814 Climbing FlightAware ADS-B
Wed 09:17:41 PM 40.6040 -73.7990 209° Southwest 155 178 800 1,200 Climbing FlightAware ADS-B
Wed 09:17:55 PM 40.5950 -73.8050 207° Southwest 159 183 1,100 1,200 Climbing FlightAware ADS-B
Wed 09:18:16 PM 40.5810 -73.8130 203° Southwest 161 185 1,500 1,222 Climbing FlightAware ADS-B
Wed 09:18:49 PM 40.5630 -73.7930 140° Southeast 165 190 2,200 1,300 Climbing FlightAware ADS-B
Wed 09:19:16 PM 40.5530 -73.7690 119° Southeast 171 197 2,800 982 Climbing FlightAware ADS-B
Wed 09:19:44 PM 40.5420 -73.7400 117° Southeast 203 234 3,100 764 Climbing FlightAware ADS-B
Wed 09:20:11 PM 40.5300 -73.7080 116° Southeast 235 270 3,500 889 Climbing FlightAware ADS-B
Wed 09:20:38 PM 40.5190 -73.6700 111° Southeast 269 310 3,900 1,527 Climbing FlightAware ADS-B
Wed 09:21:06 PM 40.5340 -73.6290 64° Northeast 271 312 4,900 2,333 Climbing FlightAware ADS-B
Wed 09:21:32 PM 40.5610 -73.6070 32° Northeast 271 312 6,000 2,618 Climbing FlightAware ADS-B
Wed 09:22:01 PM 40.5940 -73.5820 30° Northeast 269 310 7,300 2,426 Climbing FlightAware ADS-B
Wed 09:22:19 PM 40.6150 -73.5720 20° North 277 319 7,900 2,082 Climbing FlightAware ADS-B
Wed 09:22:50 PM 40.6540 -73.5640 North 282 325 9,000 2,105 Climbing FlightAware ADS-B
Wed 09:23:16 PM 40.6880 -73.5580 North 287 330 9,900 2,278 Climbing FlightAware ADS-B
Wed 09:24:09 PM 40.7580 -73.5600 359° North 288 331 12,000 2,204 Climbing FlightAware ADS-B
Wed 09:24:54 PM 40.8170 -73.5760 348° North 298 343 13,500 1,624 Climbing FlightAware ADS-B
Wed 09:25:34 PM 40.8740 -73.5900 349° North 325 374 14,300 1,521 Climbing FlightAware ADS-B
Wed 09:26:05 PM 40.9199 -73.6024 348° North 325 374 15,300 1,429 Climbing FlightAware ADS-B
Wed 09:26:37 PM 40.9713 -73.6151 349° North 349 402 15,800 800 Climbing FlightAware ADS-B
Wed 09:26:50 PM 40.9932 -73.6154 359° North 371 427 15,900 1,294 Climbing FlightAware ADS-B
Wed 09:27:28 PM 41.0520 -73.5810 24° Northeast 390 449 16,900 1,595 Climbing FlightAware ADS-B
Wed 09:28:09 PM 41.1050 -73.5090 46° Northeast 403 464 18,000 1,500 Climbing FlightAware ADS-B
Wed 09:28:48 PM 41.1560 -73.4420 45° Northeast 412 474 18,900 1,438 Climbing FlightAware ADS-B
Wed 09:29:45 PM 41.2330 -73.3380 45° Northeast 420 483 20,300 1,368 Climbing FlightAware ADS-B
Wed 09:30:42 PM 41.3110 -73.2330 45° Northeast 435 501 21,500 1,076 Climbing FlightAware ADS-B
Wed 09:32:10 PM 41.4210 -73.0490 51° Northeast 452 520 22,900 1,250 Climbing FlightAware ADS-B
Wed 09:33:06 PM 41.4850 -72.9040 59° Northeast 465 535 24,500 1,326 Climbing FlightAware ADS-B
Wed 09:33:45 PM 41.5280 -72.8070 59° Northeast 475 547 25,000 525 Climbing FlightAware ADS-B
Wed 09:34:26 PM 41.5660 -72.7200 60° Northeast 478 550 25,200 774 Climbing FlightAware ADS-B
Wed 09:35:18 PM 41.6280 -72.5790 59° Northeast 485 558 26,200 594 Climbing FlightAware ADS-B
Wed 09:36:07 PM 41.6760 -72.4720 59° Northeast 485 558 26,200 568 Level FlightAware ADS-B
Wed 09:36:32 PM 41.7200 -72.3720 59° Northeast 518 596 26,900 1,154 Climbing FlightAware ADS-B
Wed 09:37:25 PM 41.7850 -72.2270 59° Northeast 523 602 27,700 796 Climbing FlightAware ADS-B
Wed 09:38:10 PM 41.8380 -72.1090 59° Northeast 531 611 28,200 628 Climbing FlightAware ADS-B
Wed 09:38:51 PM 41.8930 -71.9840 59° Northeast 537 618 28,600 628 Climbing FlightAware ADS-B
Wed 09:39:36 PM 41.9520 -71.8510 59° Northeast 544 626 29,100 565 Climbing FlightAware ADS-B
Wed 09:40:16 PM 41.9950 -71.7350 63° Northeast 553 636 29,400 936 Climbing FlightAware ADS-B
Wed 09:41:25 PM 42.0730 -71.5170 64° Northeast 553 636 30,800 1,158 Climbing FlightAware ADS-B
Wed 09:42:10 PM 42.1230 -71.3780 64° Northeast 554 638 31,600 1,222 Climbing FlightAware ADS-B
Wed 09:43:13 PM 42.1910 -71.1850 65° Northeast 549 632 33,000 991 Climbing FlightAware ADS-B
Wed 09:43:59 PM 42.2420 -71.0430 64° Northeast 560 644 33,400 593 Climbing FlightAware ADS-B
Wed 09:44:44 PM 42.2920 -70.8990 65° Northeast 566 651 33,900 424 Climbing FlightAware ADS-B
Wed 09:45:24 PM 42.3380 -70.7680 65° Northeast 575 662 34,000 75 Climbing FlightAware ADS-B
Wed 09:46:04 PM 42.3830 -70.6380 65° Northeast 578 665 34,000  Level FlightAware ADS-B
Wed 09:46:49 PM 42.4340 -70.4910 65° Northeast 579 666 34,000  Level FlightAware ADS-B
Wed 09:47:29 PM 42.4780 -70.3630 65° Northeast 577 664 34,000  Level FlightAware ADS-B
Wed 09:48:09 PM 42.5250 -70.2310 64° Northeast 571 657 34,000  Level FlightAware ADS-B
Wed 09:48:53 PM 42.5990 -70.1040 52° Northeast 563 648 34,000 71 Level FlightAware ADS-B
Wed 09:49:33 PM 42.6670 -69.9990 49° Northeast 563 648 34,100 680 Climbing FlightAware ADS-B
Wed 09:50:30 PM 42.7390 -69.8870 49° Northeast 564 649 35,100 1,069 Climbing FlightAware ADS-B
Wed 09:51:14 PM 42.8360 -69.7280 50° Northeast 562 647 35,900 607 Climbing FlightAware ADS-B
Wed 09:51:59 PM 42.8830 -69.5800 67° East 563 648 36,000 74 Climbing FlightAware ADS-B
Wed 09:52:35 PM 42.9160 -69.4660 68° East 564 649 36,000  Level FlightAware ADS-B
Wed 09:53:24 PM 42.9610 -69.3020 69° East 567 652 36,000  Level FlightAware ADS-B
Wed 09:54:04 PM 42.9970 -69.1710 69° East 567 652 36,000  Level FlightAware ADS-B
Wed 09:54:44 PM 43.0340 -69.0350 70° East 566 651 36,000  Level FlightAware ADS-B
Wed 09:55:39 PM 43.0800 -68.8700 69° East 566 651 36,000  Level FlightAware ADS-B
Wed 09:56:35 PM 43.1340 -68.6700 70° East 566 651 36,000  Level FlightAware ADS-B
Wed 09:57:23 PM 43.1720 -68.5330 69° East 566 651 36,000  Level FlightAware ADS-B
Wed 09:58:02 PM 43.2030 -68.4220 69° East 566 651 36,000  Level FlightAware ADS-B
Wed 09:58:39 PM 43.2330 -68.3160 69° East 566 651 36,000  Level FlightAware ADS-B
Wed 09:59:27 PM 43.2710 -68.1790 69° East 566 651 36,000  Level FlightAware ADS-B
Wed 10:00:02 PM 43.3230 -67.9480 73° East 36,000  Level FlightAware ADS-B
Wed 10:00:48 PM 43.3630 -67.7950 70° East 570 656 36,000  Level FlightAware ADS-B
Wed 10:01:32 PM 43.4030 -67.6390 71° East 568 654 36,000  Level FlightAware ADS-B
Wed 10:02:07 PM 43.4330 -67.5220 71° East 569 655 36,000  Level FlightAware ADS-B
Wed 10:02:53 PM 43.4730 -67.3630 71° East 570 656 36,000  Level FlightAware ADS-B
Wed 10:03:37 PM 43.5110 -67.2150 70° East 572 658 36,000  Level FlightAware ADS-B
Wed 10:04:13 PM 43.5450 -67.0890 70° East 578 665 36,000  Level FlightAware ADS-B
Wed 10:04:58 PM 43.6010 -66.9410 62° Northeast 575 662 36,000  Level FlightAware ADS-B
Wed 10:05:38 PM 43.6580 -66.8230 56° Northeast 575 662 36,000  Level FlightAware ADS-B
Wed 10:06:18 PM 43.7230 -66.7000 54° Northeast 579 666 36,000  Level FlightAware ADS-B
Wed 10:07:03 PM 43.7930 -66.5660 54° Northeast 579 666 36,000  Level FlightAware ADS-B
Wed 10:07:44 PM 43.8570 -66.4420 54° Northeast 581 669 36,000  Level FlightAware ADS-B
Wed 10:08:28 PM 43.9260 -66.3090 54° Northeast 582 670 36,000  Level FlightAware ADS-B
Wed 10:09:08 PM 43.9880 -66.1900 54° Northeast 585 673 36,000  Level FlightAware ADS-B
Wed 10:09:48 PM 44.0520 -66.0650 55° Northeast 585 673 36,000  Level FlightAware ADS-B
Wed 10:10:34 PM 44.1150 -65.9410 55° Northeast 585 673 36,000  Level FlightAware ADS-B
Wed 10:11:44 PM 44.2340 -65.7070 55° Northeast 587 676 36,000  Level FlightAware ADS-B
Wed 10:12:39 PM 44.3210 -65.5360 55° Northeast 588 677 36,000  Level FlightAware ADS-B
Wed 10:13:22 PM 44.3860 -65.4060 55° Northeast 589 678 36,000  Level FlightAware ADS-B
Wed 10:14:02 PM 44.4490 -65.2800 55° Northeast 589 678 36,000  Level FlightAware ADS-B
Wed 10:14:45 PM 44.5170 -65.1440 55° Northeast 589 678 36,000  Level FlightAware ADS-B
Wed 10:15:27 PM 44.5830 -65.0110 55° Northeast 590 679 36,000  Level FlightAware ADS-B
Wed 10:16:09 PM 44.6480 -64.8790 55° Northeast 590 679 36,000  Level FlightAware ADS-B
Wed 10:16:50 PM 44.7100 -64.7530 55° Northeast 593 682 36,000  Level FlightAware ADS-B
Wed 10:17:32 PM 44.7750 -64.6190 56° Northeast 594 684 36,000  Level FlightAware ADS-B
Wed 10:18:14 PM 44.8410 -64.4840 55° Northeast 594 684 36,000  Level FlightAware ADS-B
Wed 10:18:59 PM 44.9100 -64.3410 56° Northeast 593 682 36,000  Level FlightAware ADS-B
Wed 10:19:39 PM 44.9730 -64.2100 56° Northeast 594 684 36,000  Level FlightAware ADS-B
Wed 10:20:16 PM 45.0290 -64.0950 55° Northeast 596 686 36,000  Level FlightAware ADS-B
Wed 10:21:05 PM 45.1050 -63.9340 56° Northeast 596 686 36,000  Level FlightAware ADS-B
Wed 10:21:44 PM 45.1630 -63.8120 56° Northeast 596 686 36,000  Level FlightAware ADS-B
Wed 10:22:24 PM 45.2240 -63.6830 56° Northeast 595 685 36,000  Level FlightAware ADS-B
Wed 10:23:09 PM 45.2930 -63.5380 56° Northeast 594 684 36,000  Level FlightAware ADS-B
Wed 10:23:49 PM 45.3550 -63.4060 56° Northeast 594 684 36,000  Level FlightAware ADS-B
Wed 10:24:34 PM 45.4210 -63.2650 56° Northeast 594 684 36,000  Level FlightAware ADS-B
Wed 10:25:14 PM 45.4780 -63.1420 57° Northeast 595 685 36,000  Level FlightAware ADS-B
Wed 10:26:04 PM 45.5490 -62.9850 57° Northeast 595 685 36,000  Level FlightAware ADS-B
Wed 10:26:49 PM 45.5710 -62.9380 56° Northeast 594 684 36,000  Level FlightAware ADS-B
Wed 10:27:33 PM 45.6270 -62.8150 57° Northeast 594 684 36,000  Level FlightAware ADS-B
Wed 10:28:21 PM 45.6880 -62.6800 57° Northeast 594 684 36,000  Level FlightAware ADS-B
Wed 10:28:56 PM 45.7330 -62.5820 57° Northeast 594 684 36,000  Level FlightAware ADS-B
Wed 10:29:44 PM 45.7940 -62.4470 57° Northeast 594 684 36,000  Level FlightAware ADS-B
Wed 10:30:21 PM 45.8410 -62.3430 57° Northeast 594 684 36,000  Level FlightAware ADS-B
Wed 10:31:17 PM 45.9930 -62.0070 57° Northeast 595 685 36,000  Level FlightAware ADS-B
Wed 10:31:59 PM 46.0880 -61.7920 57° Northeast 597 687 36,000  Level FlightAware ADS-B
Wed 10:32:41 PM 46.1510 -61.6500 57° Northeast 598 688 36,000  Level FlightAware ADS-B
Wed 10:33:25 PM 46.2150 -61.5030 58° Northeast 602 693 36,000  Level FlightAware ADS-B
Wed 10:34:07 PM 46.2770 -61.3600 58° Northeast 604 695 36,000  Level FlightAware ADS-B
Wed 10:34:47 PM 46.3370 -61.2240 57° Northeast 606 697 36,000  Level FlightAware ADS-B
Wed 10:35:59 PM 46.4430 -60.9760 58° Northeast 606 697 36,000  Level FlightAware ADS-B
Wed 10:36:43 PM 46.5080 -60.8240 58° Northeast 607 699 36,000  Level FlightAware ADS-B
Wed 10:37:19 PM 46.5610 -60.6990 58° Northeast 609 701 36,000  Level FlightAware ADS-B
Wed 10:38:05 PM 46.6280 -60.5400 58° Northeast 607 699 36,000  Level FlightAware ADS-B
Wed 10:38:48 PM 46.6840 -60.4080 58° Northeast 606 697 36,000  Level FlightAware ADS-B
Wed 10:39:27 PM 46.7480 -60.2570 58° Northeast 604 695 36,000  Level FlightAware ADS-B
Wed 10:40:11 PM 46.8120 -60.1010 59° Northeast 606 697 36,000  Level FlightAware ADS-B
Wed 10:40:52 PM 46.8700 -59.9620 59° Northeast 606 697 36,000  Level FlightAware ADS-B
Wed 10:41:36 PM 46.9340 -59.8070 59° Northeast 607 699 36,000  Level FlightAware ADS-B
Wed 10:42:16 PM 46.9920 -59.6630 59° Northeast 605 696 36,000  Level FlightAware ADS-B
Wed 10:42:59 PM 47.0530 -59.5150 59° Northeast 608 700 36,000  Level FlightAware ADS-B
Wed 10:43:40 PM 47.1140 -59.3650 59° Northeast 608 700 36,000  Level FlightAware ADS-B
Wed 10:44:22 PM 47.1670 -59.2350 59° Northeast 608 700 36,000  Level FlightAware ADS-B
Wed 10:45:04 PM 47.2330 -59.0680 60° Northeast 609 701 36,000  Level FlightAware ADS-B
Wed 10:45:41 PM 47.2800 -58.9520 59° Northeast 609 701 36,000  Level FlightAware ADS-B
Wed 10:46:28 PM 47.3520 -58.7700 60° Northeast 609 701 36,000  Level FlightAware ADS-B
Wed 10:47:26 PM 47.4300 -58.5730 60° Northeast 610 702 36,000  Level FlightAware ADS-B
Wed 10:48:02 PM 47.4800 -58.4470 60° Northeast 610 702 36,000  Level FlightAware ADS-B
Wed 10:48:52 PM 47.5420 -58.2950 59° Northeast 610 702 36,000  Level FlightAware ADS-B
Wed 10:49:29 PM 47.6040 -58.1240 62° Northeast 610 702 36,000  Level FlightAware ADS-B
Wed 10:51:11 PM 47.7480 -57.7490 60° Northeast 611 703 36,000  Level FlightAware ADS-B
Wed 10:51:51 PM 47.8050 -57.5980 61° Northeast 610 702 36,000  Level FlightAware ADS-B
Wed 10:52:32 PM 47.8560 -57.4610 61° Northeast 609 701 36,000  Level FlightAware ADS-B
Wed 10:53:11 PM 47.9070 -57.3030 64° Northeast 611 703 36,000  Level FlightAware ADS-B
Wed 10:53:57 PM 47.9630 -57.1310 64° Northeast 608 700 36,000  Level FlightAware ADS-B
Wed 10:54:31 PM 48.0020 -57.0120 64° Northeast 607 699 36,000  Level FlightAware ADS-B
Wed 10:55:22 PM 48.0680 -56.8100 64° Northeast 606 697 36,000  Level FlightAware ADS-B
Wed 10:56:02 PM 48.1170 -56.6580 64° Northeast 608 700 36,000  Level FlightAware ADS-B
Wed 10:56:37 PM 48.1580 -56.5310 64° Northeast 609 701 36,000  Level FlightAware ADS-B
Wed 10:57:26 PM 48.2200 -56.3390 64° Northeast 608 700 36,000  Level FlightAware ADS-B
Wed 10:58:06 PM 48.2660 -56.1930 65° Northeast 608 700 36,000  Level FlightAware ADS-B
Wed 10:58:47 PM 48.3170 -56.0330 64° Northeast 608 700 36,000  Level FlightAware ADS-B
Wed 10:59:32 PM 48.3710 -55.8600 65° Northeast 609 701 36,000  Level FlightAware ADS-B
Wed 11:00:12 PM 48.4190 -55.7090 64° Northeast 610 702 36,000  Level FlightAware ADS-B
Wed 11:01:07 PM 48.4850 -55.4950 65° Northeast 614 707 36,000  Level FlightAware ADS-B
Wed 11:01:51 PM 48.5380 -55.3240 65° Northeast 613 705 36,000  Level FlightAware ADS-B
Wed 11:02:32 PM 48.5850 -55.1670 66° East 617 710 36,000  Level FlightAware ADS-B
Wed 11:03:12 PM 48.6330 -55.0100 65° Northeast 618 711 36,000  Level FlightAware ADS-B
Wed 11:03:57 PM 48.6860 -54.8340 65° Northeast 618 711 36,000  Level FlightAware ADS-B
Wed 11:04:37 PM 48.7340 -54.6750 65° Northeast 620 713 36,000  Level FlightAware ADS-B
Wed 11:05:16 PM 48.7800 -54.5190 66° East 622 716 36,000  Level FlightAware ADS-B
Wed 11:06:02 PM 48.8290 -54.3530 66° East 622 716 36,000  Level FlightAware ADS-B
Wed 11:06:46 PM 48.8860 -54.1610 66° East 621 715 36,000  Level FlightAware ADS-B
Wed 11:07:31 PM 48.9380 -53.9810 66° East 620 713 36,000  Level FlightAware ADS-B
Wed 11:08:07 PM 48.9780 -53.8410 66° East 620 713 36,000 600 Level FlightAware ADS-B
Wed 11:08:51 PM 49.0290 -53.6650 66° East 616 709 36,800 714 Climbing FlightAware ADS-B
Wed 11:09:31 PM 49.0750 -53.5060 66° East 610 702 37,000 140 Climbing FlightAware ADS-B
Wed 11:10:17 PM 49.1250 -53.3250 67° East 615 708 37,000  Level FlightAware ADS-B
Wed 11:10:58 PM 49.1690 -53.1690 67° East 616 709 37,000  Level FlightAware ADS-B
Wed 11:11:37 PM 49.2150 -53.0070 66° East 618 711 37,000  Level FlightAware ADS-B
Wed 11:12:21 PM 49.2650 -52.8260 67° East 620 713 37,000  Level FlightAware ADS-B
Wed 11:13:02 PM 49.3090 -52.6660 67° East 620 713 37,000  Level FlightAware ADS-B
Wed 11:13:47 PM 49.3580 -52.4850 67° East 619 712 37,000  Level FlightAware ADS-B
Wed 11:14:42 PM 49.4160 -52.2750 67° East 619 712 37,000  Level FlightAware ADS-B
Wed 11:15:22 PM 49.4620 -52.1030 68° East 618 711 37,000  Level FlightAware ADS-B
Wed 11:16:02 PM 49.5030 -51.9490 68° East 619 712 37,000  Level FlightAware ADS-B
Wed 11:16:52 PM 49.5500 -51.7760 67° East 619 712 37,000  Level FlightAware ADS-B
Wed 11:17:29 PM 49.5860 -51.6480 67° East 619 712 37,000  Level FlightAware ADS-B
Wed 11:18:05 PM 49.6200 -51.5240 67° East 619 712 37,000  Level FlightAware ADS-B
Wed 11:18:54 PM 49.6660 -51.3540 67° East 619 712 37,000  Level FlightAware ADS-B
Wed 11:19:31 PM 49.7010 -51.2260 67° East 619 712 37,000  Level FlightAware ADS-B
Wed 11:20:35 PM 49.7620 -51.0040 67° East 619 712 37,000  Level FlightAware ADS-B
Wed 11:21:15 PM 49.8000 -50.8660 67° East 619 712 37,000  Level FlightAware ADS-B
Wed 11:21:51 PM 49.8350 -50.7400 67° East 619 712 37,000  Level FlightAware ADS-B
Wed 11:22:41 PM 49.8820 -50.5670 67° East 619 712 37,000  Level FlightAware ADS-B
Wed 11:23:18 PM 49.9170 -50.4380 67° East 619 712 37,000  Level FlightAware ADS-B
Wed 11:24:19 PM 49.9750 -50.2260 67° East 619 712 37,000  Level FlightAware ADS-B
Wed 11:24:56 PM 50.0100 -50.0970 67° East 619 712 37,000  Level FlightAware ADS-B
Wed 11:25:48 PM 50.0600 -49.9150 67° East 619 712 37,000  Level FlightAware ADS-B
Wed 11:26:53 PM 50.1500 -49.2167 67° East 620 713 37,000  Level Gander Center
Wed 11:27:53 PM 50.2333 -48.9667 62° Northeast 620 713 37,000  Level Gander Center
Wed 11:28:53 PM 50.2833 -48.7333 71° East 620 713 37,000  Level Gander Center
Wed 11:29:53 PM 50.3500 -48.4500 70° East 620 713 37,000  Level Gander Center
Wed 11:30:53 PM 50.4000 -48.2000 72° East 620 713 37,000  Level Gander Center
Wed 11:31:53 PM 50.4500 -47.9667 71° East 620 713 37,000 14 Level Gander Center
Wed 11:34:00 PM 50.5391 -47.5857 70° East  Level FlightAware Approximate
Wed 11:41:00 PM 50.8800 -46.0622 70° East  Level FlightAware Approximate
Wed 11:42:00 PM 50.9270 -45.8428 71° East  Level FlightAware Approximate
Wed 11:43:00 PM 50.9737 -45.6229 71° East  Level FlightAware Approximate
Wed 11:44:00 PM 51.0199 -45.4026 71° East  Level FlightAware Approximate
Wed 11:45:00 PM 51.0657 -45.1818 72° East  Level FlightAware Approximate
Wed 11:46:00 PM 51.1111 -44.9607 72° East  Level FlightAware Approximate
Wed 11:47:00 PM 51.1561 -44.7390 72° East  Level FlightAware Approximate
Wed 11:48:00 PM 51.2006 -44.5170 72° East  Level FlightAware Approximate
Wed 11:49:00 PM 51.2448 -44.2945 72° East  Level FlightAware Approximate
Wed 11:50:00 PM 51.2885 -44.0716 73° East  Level FlightAware Approximate
Wed 11:51:00 PM 51.3318 -43.8483 73° East  Level FlightAware Approximate
Wed 11:52:00 PM 51.3747 -43.6245 73° East  Level FlightAware Approximate
Wed 11:53:00 PM 51.4171 -43.4003 73° East  Level FlightAware Approximate
Wed 11:54:00 PM 51.4591 -43.1758 73° East  Level FlightAware Approximate
Wed 11:55:00 PM 51.5007 -42.9508 73° East  Level FlightAware Approximate
Wed 11:56:00 PM 51.5419 -42.7254 74° East  Level FlightAware Approximate
Wed 11:57:00 PM 51.5826 -42.4996 74° East  Level FlightAware Approximate
Wed 11:58:00 PM 51.6229 -42.2733 74° East  Level FlightAware Approximate
Wed 11:59:00 PM 51.6627 -42.0467 74° East  Level FlightAware Approximate
Thu 12:00:00 AM 51.7021 -41.8197 74° East  Level FlightAware Approximate
Thu 12:01:00 AM 51.7411 -41.5923 74° East  Level FlightAware Approximate
Thu 12:02:00 AM 51.7797 -41.3645 75° East  Level FlightAware Approximate
Thu 12:03:00 AM 51.8178 -41.1364 75° East  Level FlightAware Approximate
Thu 12:04:00 AM 51.8554 -40.9078 75° East  Level FlightAware Approximate
Thu 12:05:00 AM 51.8926 -40.6789 75° East  Level FlightAware Approximate
Thu 12:06:00 AM 51.9294 -40.4495 75° East  Level FlightAware Approximate
Thu 12:07:00 AM 51.9657 -40.2198 76° East  Level FlightAware Approximate
Thu 12:08:00 AM 52.0004 -39.9896 86° East  Level FlightAware Approximate
Thu 12:09:00 AM 52.0102 -39.7527 86° East  Level FlightAware Approximate
Thu 12:10:00 AM 52.0196 -39.5157 86° East  Level FlightAware Approximate
Thu 12:11:00 AM 52.0284 -39.2786 86° East  Level FlightAware Approximate
Thu 12:12:00 AM 52.0368 -39.0414 87° East  Level FlightAware Approximate
Thu 12:13:00 AM 52.0447 -38.8041 87° East  Level FlightAware Approximate
Thu 12:14:00 AM 52.0521 -38.5668 87° East  Level FlightAware Approximate
Thu 12:15:00 AM 52.0590 -38.3293 87° East  Level FlightAware Approximate
Thu 12:16:00 AM 52.0655 -38.0918 87° East  Level FlightAware Approximate
Thu 12:17:00 AM 52.0714 -37.8543 88° East  Level FlightAware Approximate
Thu 12:18:00 AM 52.0770 -37.6166 88° East  Level FlightAware Approximate
Thu 12:19:00 AM 52.0820 -37.3789 88° East  Level FlightAware Approximate
Thu 12:20:00 AM 52.0865 -37.1412 88° East  Level FlightAware Approximate
Thu 12:21:00 AM 52.0906 -36.9034 88° East  Level FlightAware Approximate
Thu 12:22:00 AM 52.0942 -36.6656 88° East  Level FlightAware Approximate
Thu 12:23:00 AM 52.0973 -36.4277 89° East  Level FlightAware Approximate
Thu 12:24:00 AM 52.0999 -36.1898 89° East  Level FlightAware Approximate
Thu 12:25:00 AM 52.1021 -35.9519 89° East  Level FlightAware Approximate
Thu 12:26:00 AM 52.1038 -35.7139 89° East  Level FlightAware Approximate
Thu 12:27:00 AM 52.1050 -35.4760 89° East  Level FlightAware Approximate
Thu 12:28:00 AM 52.1057 -35.2380 90° East  Level FlightAware Approximate
Thu 12:29:00 AM 52.1059 -35.0000 90° East  Level FlightAware Approximate
Thu 12:30:00 AM 52.1057 -34.7621 90° East  Level FlightAware Approximate
Thu 12:31:00 AM 52.1050 -34.5241 90° East  Level FlightAware Approximate
Thu 12:32:00 AM 52.1038 -34.2861 90° East  Level FlightAware Approximate
Thu 12:33:00 AM 52.1021 -34.0482 91° East  Level FlightAware Approximate
Thu 12:34:00 AM 52.0999 -33.8103 91° East  Level FlightAware Approximate
Thu 12:35:00 AM 52.0973 -33.5724 91° East  Level FlightAware Approximate
Thu 12:36:00 AM 52.0942 -33.3345 91° East  Level FlightAware Approximate
Thu 12:37:00 AM 52.0906 -33.0967 91° East  Level FlightAware Approximate
Thu 12:38:00 AM 52.0865 -32.8589 92° East  Level FlightAware Approximate
Thu 12:39:00 AM 52.0820 -32.6211 92° East  Level FlightAware Approximate
Thu 12:40:00 AM 52.0770 -32.3834 92° East  Level FlightAware Approximate
Thu 12:41:00 AM 52.0714 -32.1458 92° East  Level FlightAware Approximate
Thu 12:42:00 AM 52.0655 -31.9082 92° East  Level FlightAware Approximate
Thu 12:43:00 AM 52.0590 -31.6707 92° East  Level FlightAware Approximate
Thu 12:44:00 AM 52.0521 -31.4333 93° East  Level FlightAware Approximate
Thu 12:45:00 AM 52.0447 -31.1959 93° East  Level FlightAware Approximate
Thu 12:46:00 AM 52.0368 -30.9586 93° East  Level FlightAware Approximate
Thu 12:47:00 AM 52.0284 -30.7215 93° East  Level FlightAware Approximate
Thu 12:48:00 AM 52.0196 -30.4844 93° East  Level FlightAware Approximate
Thu 12:49:00 AM 52.0102 -30.2473 94° East  Level FlightAware Approximate
Thu 12:50:00 AM 52.0004 -30.0104 94° East  Level FlightAware Approximate
Thu 12:51:00 AM 52.0094 -29.7736 86° East  Level FlightAware Approximate
Thu 12:52:00 AM 52.0187 -29.5366 86° East  Level FlightAware Approximate
Thu 12:53:00 AM 52.0276 -29.2995 86° East  Level FlightAware Approximate
Thu 12:54:00 AM 52.0360 -29.0623 87° East  Level FlightAware Approximate
Thu 12:55:00 AM 52.0440 -28.8250 87° East  Level FlightAware Approximate
Thu 12:56:00 AM 52.0514 -28.5877 87° East  Level FlightAware Approximate
Thu 12:57:00 AM 52.0584 -28.3502 87° East  Level FlightAware Approximate
Thu 12:58:00 AM 52.0649 -28.1127 87° East  Level FlightAware Approximate
Thu 12:59:00 AM 52.0709 -27.8752 88° East  Level FlightAware Approximate
Thu 01:00:00 AM 52.0765 -27.6375 88° East  Level FlightAware Approximate
Thu 01:01:00 AM 52.0816 -27.3998 88° East  Level FlightAware Approximate
Thu 01:02:00 AM 52.0862 -27.1621 88° East  Level FlightAware Approximate
Thu 01:03:00 AM 52.0903 -26.9243 88° East  Level FlightAware Approximate
Thu 01:04:00 AM 52.0939 -26.6865 88° East  Level FlightAware Approximate
Thu 01:05:00 AM 52.0970 -26.4486 89° East  Level FlightAware Approximate
Thu 01:06:00 AM 52.0997 -26.2107 89° East  Level FlightAware Approximate
Thu 01:07:00 AM 52.1019 -25.9728 89° East  Level FlightAware Approximate
Thu 01:08:00 AM 52.1036 -25.7349 89° East  Level FlightAware Approximate
Thu 01:09:00 AM 52.1049 -25.4969 89° East  Level FlightAware Approximate
Thu 01:10:00 AM 52.1057 -25.2589 90° East  Level FlightAware Approximate
Thu 01:11:00 AM 52.1059 -25.0210 90° East  Level FlightAware Approximate
Thu 01:12:00 AM 52.1057 -24.7830 90° East  Level FlightAware Approximate
Thu 01:13:00 AM 52.1050 -24.5450 90° East  Level FlightAware Approximate
Thu 01:14:00 AM 52.1039 -24.3071 90° East  Level FlightAware Approximate
Thu 01:15:00 AM 52.1023 -24.0691 91° East  Level FlightAware Approximate
Thu 01:16:00 AM 52.1002 -23.8312 91° East  Level FlightAware Approximate
Thu 01:17:00 AM 52.0976 -23.5933 91° East  Level FlightAware Approximate
Thu 01:18:00 AM 52.0945 -23.3554 91° East  Level FlightAware Approximate
Thu 01:19:00 AM 52.0909 -23.1176 91° East  Level FlightAware Approximate
Thu 01:20:00 AM 52.0869 -22.8798 91° East  Level FlightAware Approximate
Thu 01:21:00 AM 52.0824 -22.6421 92° East  Level FlightAware Approximate
Thu 01:22:00 AM 52.0774 -22.4044 92° East  Level FlightAware Approximate
Thu 01:23:00 AM 52.0720 -22.1667 92° East  Level FlightAware Approximate
Thu 01:24:00 AM 52.0660 -21.9291 92° East  Level FlightAware Approximate
Thu 01:25:00 AM 52.0596 -21.6916 92° East  Level FlightAware Approximate
Thu 01:26:00 AM 52.0527 -21.4542 93° East  Level FlightAware Approximate
Thu 01:27:00 AM 52.0453 -21.2168 93° East  Level FlightAware Approximate
Thu 01:28:00 AM 52.0375 -20.9795 93° East  Level FlightAware Approximate
Thu 01:29:00 AM 52.0291 -20.7423 93° East  Level FlightAware Approximate
Thu 01:30:00 AM 52.0204 -20.5052 93° East  Level FlightAware Approximate
Thu 01:31:00 AM 52.0111 -20.2682 94° East  Level FlightAware Approximate
Thu 01:32:00 AM 52.0013 -20.0313 94° East  Level FlightAware Approximate
Thu 01:33:00 AM 52.0076 -19.7943 86° East  Level FlightAware Approximate
Thu 01:34:00 AM 52.0159 -19.5572 87° East  Level FlightAware Approximate
Thu 01:35:00 AM 52.0238 -19.3200 87° East  Level FlightAware Approximate
Thu 01:36:00 AM 52.0312 -19.0828 87° East  Level FlightAware Approximate
Thu 01:37:00 AM 52.0381 -18.8454 87° East  Level FlightAware Approximate
Thu 01:38:00 AM 52.0445 -18.6080 87° East  Level FlightAware Approximate
Thu 01:39:00 AM 52.0504 -18.3706 88° East  Level FlightAware Approximate
Thu 01:40:00 AM 52.0559 -18.1331 88° East  Level FlightAware Approximate
Thu 01:41:00 AM 52.0609 -17.8955 88° East  Level FlightAware Approximate
Thu 01:42:00 AM 52.0654 -17.6578 88° East  Level FlightAware Approximate
Thu 01:43:00 AM 52.0695 -17.4202 88° East  Level FlightAware Approximate
Thu 01:44:00 AM 52.0730 -17.1824 89° East  Level FlightAware Approximate
Thu 01:45:00 AM 52.0761 -16.9447 89° East  Level FlightAware Approximate
Thu 01:46:00 AM 52.0787 -16.7069 89° East  Level FlightAware Approximate
Thu 01:47:00 AM 52.0808 -16.4691 89° East  Level FlightAware Approximate
Thu 01:48:00 AM 52.0825 -16.2313 89° East  Level FlightAware Approximate
Thu 01:49:00 AM 52.0836 -15.9934 89° East  Level FlightAware Approximate
Thu 01:50:00 AM 52.0843 -15.7556 90° East  Level FlightAware Approximate
Thu 01:51:00 AM 52.0845 -15.5177 90° East  Level FlightAware Approximate
Thu 01:52:00 AM 52.0843 -15.2799 90° East  Level FlightAware Approximate
Thu 01:53:00 AM 52.0835 -15.0420 90° East  Level FlightAware Approximate
Thu 01:54:00 AM 52.0828 -14.8041 90° East  Level FlightAware Approximate
Thu 01:54:09 AM 51.9900 -12.0800 90° East 502 578 39,000  Level FlightAware ADS-B
Thu 01:55:00 AM 52.0818 -14.5663 90° East  Level FlightAware Approximate
Thu 01:55:09 AM 51.9870 -11.8790 91° East 508 585 39,000  Level FlightAware ADS-B
Thu 01:55:43 AM 51.9840 -11.7640 92° East 511 588 39,000  Level FlightAware ADS-B
Thu 01:56:28 AM 51.9800 -11.5360 92° East 512 589 39,000  Level FlightAware ADS-B
Thu 01:57:24 AM 51.9760 -11.3320 92° East 511 588 39,000  Level FlightAware ADS-B
Thu 01:58:10 AM 51.9730 -11.1760 92° East 511 588 39,000  Level FlightAware ADS-B
Thu 01:58:44 AM 51.9690 -11.0220 92° East 512 589 39,000  Level FlightAware ADS-B
Thu 01:59:25 AM 51.9660 -10.8630 92° East 513 590 39,000  Level FlightAware ADS-B
Thu 02:00:12 AM 51.9610 -10.6780 92° East 514 592 39,000  Level FlightAware ADS-B
Thu 02:01:10 AM 51.9560 -10.4910 92° East 512 589 39,000  Level FlightAware ADS-B
Thu 02:01:48 AM 51.9510 -10.3200 93° East 509 586 39,000  Level FlightAware ADS-B
Thu 02:02:28 AM 51.9460 -10.1590 93° East 507 583 39,000  Level FlightAware ADS-B
Thu 02:03:13 AM 51.9410 -9.9910 93° East 504 580 39,000  Level FlightAware ADS-B
Thu 02:03:53 AM 51.9360 -9.8400 93° East 502 578 39,000  Level FlightAware ADS-B
Thu 02:04:38 AM 51.9310 -9.6690 93° East 500 575 39,000  Level FlightAware ADS-B
Thu 02:05:23 AM 51.9250 -9.5020 93° East 502 578 39,000  Level FlightAware ADS-B
Thu 02:06:03 AM 51.9190 -9.3520 94° East 503 579 39,000  Level FlightAware ADS-B
Thu 02:06:43 AM 51.9130 -9.2010 94° East 506 582 39,000  Level FlightAware ADS-B
Thu 02:07:23 AM 51.9070 -9.0470 94° East 508 585 39,000  Level FlightAware ADS-B
Thu 02:08:09 AM 51.9010 -8.8800 93° East 506 582 39,000  Level FlightAware ADS-B
Thu 02:08:44 AM 51.8952 -8.7369 93° East 484 557 39,000  Level FlightAware UK
Thu 02:08:48 AM 51.8940 -8.7310 93° East 505 581 39,000  Level FlightAware ADS-B
Thu 02:09:33 AM 51.8870 -8.5600 94° East 498 573 39,000  Level FlightAware ADS-B
Thu 02:10:13 AM 51.8810 -8.4290 94° East 498 573 39,000  Level FlightAware ADS-B
Thu 02:10:14 AM 51.8798 -8.4011 94° East 484 557 39,000  Level FlightAware UK
Thu 02:10:44 AM 51.8746 -8.2901 94° East 484 557 39,000  Level FlightAware UK
Thu 02:11:14 AM 51.8694 -8.1782 94° East 484 557 39,000  Level FlightAware UK
Thu 02:11:20 AM 51.8710 -8.2050 94° East 498 573 39,000  Level FlightAware ADS-B
Thu 02:12:20 AM 51.8591 -7.9347 94° East 480 552 39,000  Level FlightAware UK
Thu 02:12:23 AM 51.8580 -7.9320 94° East 494 568 39,000  Level FlightAware ADS-B
Thu 02:13:03 AM 51.8510 -7.7890 94° East 498 573 39,000  Level FlightAware ADS-B
Thu 02:13:46 AM 51.8420 -7.6260 95° East 499 574 39,000  Level FlightAware ADS-B
Thu 02:14:20 AM 51.8365 -7.4912 95° East 478 550 39,000  Level FlightAware UK
Thu 02:14:26 AM 51.8340 -7.4730 95° East 500 575 39,000  Level FlightAware ADS-B
Thu 02:15:07 AM 51.8290 -7.3680 94° East 501 577 39,000  Level FlightAware ADS-B
Thu 02:15:44 AM 51.8180 -7.1830 94° East 499 574 39,000  Level FlightAware ADS-B
Thu 02:15:50 AM 51.8170 -7.1563 94° East 478 550 39,000  Level FlightAware UK
Thu 02:16:21 AM 51.8108 -7.0444 94° East 474 545 39,000  Level FlightAware UK
Thu 02:16:34 AM 51.8080 -6.9970 94° East 501 577 39,000  Level FlightAware ADS-B
Thu 02:17:14 AM 51.7990 -6.8470 95° East 503 579 39,000  Level FlightAware ADS-B
Thu 02:17:51 AM 51.7911 -6.7101 95° East 482 555 39,000  Level FlightAware UK
Thu 02:17:56 AM 51.7900 -6.6930 95° East 502 578 39,000  Level FlightAware ADS-B
Thu 02:18:36 AM 51.7810 -6.5460 96° East 497 572 39,000  Level FlightAware ADS-B
Thu 02:19:21 AM 51.7744 -6.3762 96° East 488 562 39,000  Level FlightAware UK
Thu 02:19:24 AM 51.7750 -6.3680 96° East 499 574 39,000  Level FlightAware ADS-B
Thu 02:20:02 AM 51.7710 -6.2260 93° East 493 567 39,000  Level FlightAware ADS-B
Thu 02:20:48 AM 51.7650 -6.0640 93° East 488 562 39,000  Level FlightAware ADS-B
Thu 02:21:21 AM 51.7606 -5.9369 93° East 480 552 39,000  Level FlightAware UK
Thu 02:21:30 AM 51.7600 -5.9080 93° East 489 563 39,000  Level FlightAware ADS-B
Thu 02:22:10 AM 51.7540 -5.7630 94° East 490 564 39,000  Level FlightAware ADS-B
Thu 02:22:51 AM 51.7484 -5.6098 94° East 484 557 39,000  Level FlightAware UK
Thu 02:22:52 AM 51.7480 -5.6070 94° East 490 564 39,000  Level FlightAware ADS-B
Thu 02:23:33 AM 51.7420 -5.4600 94° East 490 564 39,000  Level FlightAware ADS-B
Thu 02:24:12 AM 51.7360 -5.3180 94° East 489 563 39,000  Level FlightAware ADS-B
Thu 02:24:56 AM 51.7290 -5.1580 94° East 490 564 39,000  Level FlightAware ADS-B
Thu 02:25:39 AM 51.7225 -4.9995 94° East 478 550 39,000  Level FlightAware UK
Thu 02:25:42 AM 51.7220 -4.9920 94° East 488 562 39,000  Level FlightAware ADS-B
Thu 02:26:22 AM 51.7160 -4.8460 94° East 489 563 39,000  Level FlightAware ADS-B
Thu 02:27:04 AM 51.7080 -4.6940 95° East 487 560 39,000  Level FlightAware ADS-B
Thu 02:27:39 AM 51.7024 -4.5648 95° East 482 555 39,000  Level FlightAware UK
Thu 02:27:46 AM 51.7010 -4.5440 95° East 486 559 39,000  Level FlightAware ADS-B
Thu 02:28:26 AM 51.6940 -4.4000 94° East 485 558 39,000  Level FlightAware ADS-B
Thu 02:29:02 AM 51.6880 -4.2690 94° East 480 552 39,000  Level FlightAware ADS-B
Thu 02:29:52 AM 51.6780 -4.0930 95° East 480 552 39,000  Level FlightAware ADS-B
Thu 02:30:27 AM 51.6720 -3.9780 95° East 482 555 39,000  Level FlightAware ADS-B
Thu 02:30:27 AM 51.6715 -3.9645 95° East 476 548 39,000  Level FlightAware UK
Thu 02:31:09 AM 51.6636 -3.8134 95° East 480 552 39,000  Level FlightAware UK
Thu 02:31:19 AM 51.6620 -3.7930 95° East 484 557 39,000  Level FlightAware ADS-B
Thu 02:31:51 AM 51.6551 -3.6628 95° East 482 555 39,000  Level FlightAware UK
Thu 02:32:10 AM 51.6520 -3.6020 95° East 482 555 39,000  Level FlightAware ADS-B
Thu 02:32:48 AM 51.6440 -3.4620 95° East 478 550 39,000  Level FlightAware ADS-B
Thu 02:33:26 AM 51.6360 -3.3330 95° East 473 544 39,000  Level FlightAware ADS-B
Thu 02:33:28 AM 51.6354 -3.3226 95° East 488 562 39,000  Level FlightAware UK
Thu 02:34:00 AM 51.6286 -3.2113 96° East 468 539 39,000  Level FlightAware ADS-B
Thu 02:34:36 AM 51.6211 -3.0868 95° East 465 535 39,000  Level FlightAware ADS-B
Thu 02:35:07 AM 51.6145 -2.9804 96° East 464 534 39,000  Level FlightAware ADS-B
Thu 02:35:38 AM 51.6080 -2.8754 96° East 465 535 39,000  Level FlightAware ADS-B
Thu 02:36:08 AM 51.6014 -2.7712 96° East 465 535 39,000  Level FlightAware ADS-B
Thu 02:36:51 AM 51.5918 -2.6239 96° East 467 537 39,000  Level FlightAware ADS-B
Thu 02:37:21 AM 51.5850 -2.5198 96° East 468 539 39,000  Level FlightAware ADS-B
Thu 02:37:58 AM 51.5765 -2.3934 96° East 469 540 39,000  Level FlightAware ADS-B
Thu 02:38:35 AM 51.5679 -2.2660 96° East 469 540 39,000  Level FlightAware ADS-B
Thu 02:39:05 AM 51.5607 -2.1619 96° East 467 537 39,000  Level FlightAware ADS-B
Thu 02:39:38 AM 51.5529 -2.0501 96° East 469 540 39,000  Level FlightAware ADS-B
Thu 02:40:08 AM 51.5455 -1.9444 96° East 474 545 39,000  Level FlightAware ADS-B
Thu 02:40:41 AM 51.5373 -1.8321 97° East 473 544 39,000  Level FlightAware ADS-B
Thu 02:41:12 AM 51.5294 -1.7229 97° East 470 541 39,000  Level FlightAware ADS-B
Thu 02:41:42 AM 51.5217 -1.6182 97° East 469 540 39,000  Level FlightAware ADS-B
Thu 02:42:14 AM 51.5136 -1.5093 97° East 468 539 39,000  Level FlightAware ADS-B
Thu 02:42:45 AM 51.5056 -1.4037 97° East 467 537 39,000  Level FlightAware ADS-B
Thu 02:43:15 AM 51.4977 -1.3005 97° East 467 537 39,000  Level FlightAware ADS-B
Thu 02:43:45 AM 51.4898 -1.1976 97° East 467 537 39,000  Level FlightAware ADS-B
Thu 02:44:16 AM 51.4807 -1.0899 98° East 466 536 39,000  Level FlightAware ADS-B
Thu 02:44:46 AM 51.4716 -0.9873 98° East 465 535 39,000  Level FlightAware ADS-B
Thu 02:45:22 AM 51.4609 -0.8669 98° East 463 533 39,000  Level FlightAware ADS-B
Thu 02:45:52 AM 51.4519 -0.7656 98° East 461 531 39,000  Level FlightAware ADS-B
Thu 02:46:23 AM 51.4424 -0.6596 98° East 460 529 39,000  Level FlightAware ADS-B
Thu 02:46:57 AM 51.4323 -0.5480 98° East 459 528 39,000  Level FlightAware ADS-B
Thu 02:47:27 AM 51.4230 -0.4464 98° East 459 528 39,000  Level FlightAware ADS-B
Thu 02:47:58 AM 51.4133 -0.3421 98° East 459 528 39,000  Level FlightAware ADS-B
Thu 02:48:29 AM 51.4037 -0.2396 99° East 458 527 39,000  Level FlightAware ADS-B
Thu 02:48:59 AM 51.3943 -0.1393 99° East 457 526 39,000  Level FlightAware ADS-B
Thu 02:49:30 AM 51.3842 -0.0334 99° East 457 526 39,000  Level FlightAware ADS-B
Thu 02:50:03 AM 51.3737 0.0756 99° East 459 528 39,000  Level FlightAware ADS-B
Thu 02:50:36 AM 51.3630 0.1859 99° East 461 531 39,000  Level FlightAware ADS-B
Thu 02:51:08 AM 51.3523 0.2948 99° East 465 535 39,000  Level FlightAware ADS-B
Thu 02:51:39 AM 51.3420 0.3986 99° East 466 536 39,000  Level FlightAware ADS-B
Thu 02:52:30 AM 51.3245 0.5719 99° East 464 534 39,000  Level FlightAware ADS-B
Thu 02:53:02 AM 51.3138 0.6778 99° East 463 533 39,000  Level FlightAware ADS-B
Thu 02:53:33 AM 51.3030 0.7834 99° East 464 534 39,000  Level FlightAware ADS-B
Thu 02:54:05 AM 51.2918 0.8913 99° East 465 535 39,000  Level FlightAware ADS-B
Thu 02:54:35 AM 51.2810 0.9944 99° East 466 536 39,000  Level FlightAware ADS-B
Thu 02:55:06 AM 51.2698 1.0964 100° East 467 537 39,000  Level FlightAware ADS-B
Thu 02:55:36 AM 51.2542 1.1983 104° East 468 539 39,000  Level FlightAware ADS-B
Thu 02:56:19 AM 51.2321 1.3416 104° East 484 557 39,000  Level FlightAware UK
Thu 02:56:21 AM 51.2310 1.3470 104° East 470 541 39,000  Level FlightAware ADS-B
Thu 02:56:55 AM 51.2143 1.4628 104° East 486 559 39,000  Level FlightAware UK
Thu 02:56:59 AM 51.2130 1.4740 104° East 470 541 39,000  Level FlightAware ADS-B
Thu 02:57:31 AM 51.1967 1.5848 104° East 486 559 39,000  Level FlightAware UK
Thu 02:57:41 AM 51.1920 1.6130 104° East 467 537 39,000  Level FlightAware ADS-B
Thu 02:58:25 AM 51.1710 1.7570 103° East 465 535 39,000  Level FlightAware ADS-B (CYTZ)
Thu 02:59:07 AM 51.1485 1.9043 103° East 484 557 39,000  Level FlightAware UK
Thu 02:59:16 AM 51.1440 1.9320 103° East 465 535 39,000  Level FlightAware ADS-B
Thu 02:59:49 AM 51.1273 2.0437 103° East 484 557 39,000  Level FlightAware UK
Thu 02:59:59 AM 51.1220 2.0760 104° East 465 535 39,000  Level FlightAware ADS-B
Thu 03:00:19 AM 51.1119 2.1439 104° East 484 557 39,000  Level FlightAware UK
Thu 03:00:49 AM 51.0963 2.2434 104° East 488 562 39,000  Level FlightAware UK
Thu 03:01:19 AM 51.0807 2.3431 104° East 486 559 39,000  Level FlightAware UK
Thu 03:01:33 AM 51.0740 2.3870 104° East 466 536 39,000  Level FlightAware ADS-B
Thu 03:02:16 AM 51.0520 2.5280 104° East 465 535 39,000  Level FlightAware ADS-B
Thu 03:02:59 AM 51.0290 2.6710 104° East 465 535 39,000  Level FlightAware ADS-B
Thu 03:03:31 AM 51.0119 2.7811 104° East 484 557 39,000  Level FlightAware UK
Thu 03:03:40 AM 51.0070 2.8070 104° East 467 537 39,000  Level FlightAware ADS-B
Thu 03:04:22 AM 50.9850 2.9470 104° East 468 539 39,000  Level FlightAware ADS-B
Thu 03:05:08 AM 50.9610 3.0910 105° East 465 535 39,000  Level FlightAware ADS-B
Thu 03:05:31 AM 50.9480 3.1740 104° East 461 531 39,000  Level FlightAware ADS-B
Thu 03:06:23 AM 50.9440 3.1980 105° East 460 529 39,000  Level FlightAware ADS-B
Thu 03:07:09 AM 50.8960 3.4850 105° East 452 520 39,000  Level FlightAware ADS-B
Thu 03:07:50 AM 50.8740 3.6190 105° East 453 521 39,000  Level FlightAware ADS-B
Thu 03:08:34 AM 50.8500 3.7590 105° East 447 514 39,000  Level FlightAware ADS-B
Thu 03:09:17 AM 50.8270 3.8930 105° East 448 516 39,000  Level FlightAware ADS-B
Thu 03:09:59 AM 50.8050 4.0240 105° East 448 516 39,000  Level FlightAware ADS-B
Thu 03:10:37 AM 50.7833 4.1506 105° East 484 557 39,000  Level FlightAware UK
Thu 03:10:43 AM 50.7800 4.1670 105° East 450 518 39,000 -714 Level FlightAware ADS-B
Thu 03:11:19 AM 50.7599 4.2832 105° East 490 564 38,500 -689 Descending FlightAware UK
Thu 03:11:44 AM 50.7500 4.3380 105° East 431 496 38,300 -1,343 Descending FlightAware ADS-B
Thu 03:12:26 AM 50.7255 4.4808 105° East 468 539 37,000 -2,000 Descending FlightAware UK
Thu 03:12:29 AM 50.7250 4.4830 105° East 420 483 36,800 -4,364 Descending FlightAware ADS-B
Thu 03:13:10 AM 50.7010 4.6150 106° East 448 516 33,800 -4,080 Descending FlightAware ADS-B
Thu 03:13:44 AM 50.6810 4.7223 106° East 492 566 31,700 -3,600 Descending FlightAware UK
Thu 03:13:50 AM 50.6780 4.7430 106° East 461 531 31,400 -2,512 Descending FlightAware ADS-B
Thu 03:14:27 AM 50.6580 4.8570 105° East 457 526 29,900 -1,605 Descending FlightAware ADS-B
Thu 03:15:16 AM 50.6330 4.9970 106° East 430 495 29,100 -587 Descending FlightAware ADS-B
Thu 03:15:59 AM 50.6070 5.1390 106° East 426 490 29,000 -72 Descending FlightAware ADS-B
Thu 03:16:39 AM 50.5840 5.2590 107° East 432 497 29,000  Level FlightAware ADS-B
Thu 03:17:21 AM 50.5620 5.3830 106° East 433 498 29,000 -71 Level FlightAware ADS-B
Thu 03:18:03 AM 50.5380 5.5100 107° East 426 490 28,900 -558 Descending FlightAware ADS-B
Thu 03:18:47 AM 50.5130 5.6400 107° East 421 484 28,200 -977 Descending FlightAware ADS-B
Thu 03:19:29 AM 50.4910 5.7610 106° East 419 482 27,500 -947 Descending FlightAware ADS-B
Thu 03:20:03 AM 50.4720 5.8620 106° East 416 479 27,000 -1,000 Descending FlightAware ADS-B
Thu 03:20:53 AM 50.4440 6.0060 107° East 412 474 26,100 -1,000 Descending FlightAware ADS-B
Thu 03:21:33 AM 50.4220 6.1170 107° East 414 476 25,500 -931 Descending FlightAware ADS-B
Thu 03:21:51 AM 50.4080 6.1670 114° Southeast 406 467 25,200 -517 Descending FlightAware ADS-B
Thu 03:22:31 AM 50.3630 6.2600 127° Southeast 412 474 25,000 -143 Descending FlightAware ADS-B
Thu 03:23:15 AM 50.3110 6.3650 128° Southeast 417 480 25,000 -141 Level FlightAware ADS-B
Thu 03:23:56 AM 50.2680 6.4650 124° Southeast 424 488 24,800 -585 Descending FlightAware ADS-B
Thu 03:24:37 AM 50.2380 6.5810 112° Southeast 403 464 24,200 -1,624 Descending FlightAware ADS-B
Thu 03:25:21 AM 50.2050 6.6970 114° Southeast 399 459 22,500 -2,127 Descending FlightAware ADS-B
Thu 03:25:56 AM 50.1810 6.7810 114° Southeast 399 459 21,400 -1,862 Descending FlightAware ADS-B
Thu 03:26:48 AM 50.1430 6.9150 114° Southeast 382 440 19,800 -1,714 Descending FlightAware ADS-B
Thu 03:27:34 AM 50.1100 7.0300 114° Southeast 364 419 18,600 -1,846 Descending FlightAware ADS-B
Thu 03:28:19 AM 50.0790 7.1400 114° Southeast 362 417 17,000 -2,160 Descending FlightAware ADS-B
Thu 03:29:14 AM 50.0420 7.2690 114° Southeast 350 403 15,000 -2,204 Descending FlightAware ADS-B
Thu 03:29:57 AM 50.0140 7.3650 114° Southeast 341 392 13,400 -1,446 Descending FlightAware ADS-B
Thu 03:30:37 AM 49.9890 7.4520 114° Southeast 322 371 13,000 -300 Descending FlightAware ADS-B
Thu 03:31:17 AM 49.9660 7.5320 114° Southeast 280 322 13,000 -71 Level FlightAware ADS-B
Thu 03:32:02 AM 49.9420 7.6140 114° Southeast 277 319 12,900 -706 Descending FlightAware ADS-B
Thu 03:32:42 AM 49.9200 7.6870 115° Southeast 275 316 12,000 -1,275 Descending FlightAware ADS-B
Thu 03:33:22 AM 49.9000 7.7550 115° Southeast 244 281 11,200 -1,650 Descending FlightAware ADS-B
Thu 03:34:02 AM 49.8820 7.8180 114° Southeast 245 282 9,800 -1,886 Descending FlightAware ADS-B
Thu 03:34:32 AM 49.8690 7.8650 113° Southeast 234 269 9,000 -1,200 Descending FlightAware ADS-B
Thu 03:35:02 AM 49.8770 7.9130 75° East 223 257 8,600 -764 Descending FlightAware ADS-B
Thu 03:35:27 AM 49.8860 7.9500 69° East 222 255 8,300 -1,200 Descending FlightAware ADS-B
Thu 03:35:57 AM 49.8970 7.9960 70° East 214 246 7,500 -1,300 Descending FlightAware ADS-B
Thu 03:36:27 AM 49.9070 8.0350 68° East 198 228 7,000 -982 Descending FlightAware ADS-B
Thu 03:36:52 AM 49.9140 8.0660 71° East 188 216 6,600 -982 Descending FlightAware ADS-B
Thu 03:37:22 AM 49.9240 8.1060 69° East 181 208 6,100 -1,067 Descending FlightAware ADS-B
Thu 03:37:37 AM 49.9290 8.1240 67° East 179 206 5,800 -900 Descending FlightAware ADS-B
Thu 03:38:02 AM 49.9350 8.1500 70° East 177 204 5,500 -857 Descending FlightAware ADS-B
Thu 03:38:12 AM 49.9380 8.1650 73° East 174 200 5,300 -1,067 Descending FlightAware ADS-B
Thu 03:38:47 AM 49.9490 8.2060 67° East 171 197 4,700 -1,000 Descending FlightAware ADS-B
Thu 03:39:12 AM 49.9560 8.2370 71° East 171 197 4,300 -720 Descending FlightAware ADS-B
Thu 03:39:37 AM 49.9600 8.2540 70° East 168 193 4,100 -732 Descending FlightAware ADS-B
Thu 03:39:53 AM 49.9660 8.2800 70° East 163 188 3,800 -1,125 Descending FlightAware ADS-B
Thu 03:40:25 AM 49.9760 8.3200 69° East 164 189 3,200 -1,000 Descending FlightAware ADS-B
Thu 03:40:47 AM 49.9820 8.3440 69° East 168 193 2,900 -828 Descending FlightAware ADS-B
Thu 03:41:23 AM 49.9920 8.3840 69° East 172 198 2,400 -844 Descending FlightAware ADS-B
Thu 03:41:51 AM 50.0000 8.4180 70° East 169 194 2,000 -882 Descending FlightAware ADS-B
Thu 03:42:31 AM 50.0100 8.4600 70° East 148 170 1,400 -896 Descending FlightAware ADS-B
Thu 03:42:58 AM 50.0160 8.4860 70° East 148 170 1,000 -792 Descending FlightAware ADS-B
Thu 03:43:24 AM 50.0220 8.5110 70° East 147 169 700 -724 Descending FlightAware ADS-B
Thu 03:43:56 AM 50.0300 8.5440 69° East 145 167 300 -571 Descending FlightAware ADS-B
Thu 03:44:06 AM 50.0320 8.5530 71° East 118 136 300  Level FlightAware ADS-B
Thu 03:44:24 AM 50.0350 8.5650 69° East 80 92 -1,000 Descending FlightAware ADS-B
Thu 03:44:49 AM 50.0370 8.5760 74° East 52 60  Level FlightAware ADS-B
Thu 03:45:04 AM 50.0380 8.5790 63° Northeast 15 17  Level FlightAware ADS-B
Thu 03:46:06 AM 50.0400 8.5790 360° North 24 28  Level FlightAware ADS-B
Thu 03:46:31 AM 50.0420 8.5820 44° Northeast 30 35  Level FlightAware ADS-B
Thu 03:46:50 AM 50.0430 8.5820 360° North 32 37  Level FlightAware ADS-B
Thu 03:47:15 AM 50.0440 8.5810 327° Northwest 16 18  Level FlightAware ADS-B
Thu 03:47:45 AM 50.0460 8.5800 342° North 28 32  Level FlightAware ADS-B
Thu 03:48:43 AM 50.0470 8.5790 327° Northwest 10 12  Level FlightAware ADS-B
Thu 03:49:23 AM 50.0480 8.5780 327° Northwest 16 18  Level FlightAware ADS-B
Thu 03:50:16 AM 50.0480 8.5770 270° West  Level FlightAware ADS-B
Thu 03:52:00 AM 50.0167 8.5667 111° Southeast  Level FlightAware Approximate
Thu 03:53:00 AM 50.0264 8.5431 111° Southeast  Level Estimated
Thu 03:54:00 AM 50.0264 8.5431 111° Southeast  Level Estimated
Thu 03:55:00 AM 50.0264 8.5431 111° Southeast  Level Estimated
Thu 03:56:00 AM 50.0264 8.5431 111° Southeast  Level Estimated

Login

Don't have an account? Register now (free) for customized features, flight alerts, and more!